sensor_id;sensor_type;location;lat;lon;timestamp;P1;P2;P0
70915;PMS5003;58557;50.982;-3.222;2023-10-08T00:00:55;29;28;
70915;PMS5003;58557;50.982;-3.222;2023-10-08T00:03:20;21;19;
70915;PMS5003;58557;50.982;-3.222;2023-10-08T00:05:46;22;20;
70915;PMS5003;58557;50.982;-3.222;2023-10-08T00:08:11;28;26;
70915;PMS5003;58557;50.982;-3.222;2023-10-08T00:10:36;24;23;
70915;PMS5003;58557;50.982;-3.222;2023-10-08T00:13:01;23;19;
70915;PMS5003;58557;50.982;-3.222;2023-10-08T00:15:27;33;30;
70915;PMS5003;58557;50.982;-3.222;2023-10-08T00:17:52;25;23;
70915;PMS5003;58557;50.982;-3.222;2023-10-08T00:20:17;25;24;
70915;PMS5003;58557;50.982;-3.222;2023-10-08T00:22:42;27;24;
70915;PMS5003;58557;50.982;-3.222;2023-10-08T00:25:08;26;26;
70915;PMS5003;58557;50.982;-3.222;2023-10-08T00:27:32;24;22;
70915;PMS5003;58557;50.982;-3.222;2023-10-08T00:29:58;27;23;
70915;PMS5003;58557;50.982;-3.222;2023-10-08T00:32:23;27;24;
70915;PMS5003;58557;50.982;-3.222;2023-10-08T00:34:49;42;34;
70915;PMS5003;58557;50.982;-3.222;2023-10-08T00:37:15;30;22;
70915;PMS5003;58557;50.982;-3.222;2023-10-08T00:39:41;30;26;
70915;PMS5003;58557;50.982;-3.222;2023-10-08T00:42:06;29;29;
70915;PMS5003;58557;50.982;-3.222;2023-10-08T00:44:31;28;26;
70915;PMS5003;58557;50.982;-3.222;2023-10-08T00:46:56;31;30;
70915;PMS5003;58557;50.982;-3.222;2023-10-08T00:49:22;33;31;
70915;PMS5003;58557;50.982;-3.222;2023-10-08T00:51:47;24;23;
70915;PMS5003;58557;50.982;-3.222;2023-10-08T00:54:12;29;27;
70915;PMS5003;58557;50.982;-3.222;2023-10-08T00:56:38;26;22;
70915;PMS5003;58557;50.982;-3.222;2023-10-08T00:59:03;26;25;
70915;PMS5003;58557;50.982;-3.222;2023-10-08T01:01:29;27;22;
70915;PMS5003;58557;50.982;-3.222;2023-10-08T01:03:55;25;24;
70915;PMS5003;58557;50.982;-3.222;2023-10-08T01:06:20;27;24;
70915;PMS5003;58557;50.982;-3.222;2023-10-08T01:08:45;24;19;
70915;PMS5003;58557;50.982;-3.222;2023-10-08T01:11:16;27;24;
70915;PMS5003;58557;50.982;-3.222;2023-10-08T01:13:36;27;24;
70915;PMS5003;58557;50.982;-3.222;2023-10-08T01:16:01;17;15;
70915;PMS5003;58557;50.982;-3.222;2023-10-08T01:18:27;19;18;
70915;PMS5003;58557;50.982;-3.222;2023-10-08T01:20:53;30;29;
70915;PMS5003;58557;50.982;-3.222;2023-10-08T01:23:18;29;28;
70915;PMS5003;58557;50.982;-3.222;2023-10-08T01:25:43;23;21;
70915;PMS5003;58557;50.982;-3.222;2023-10-08T01:28:09;23;20;
70915;PMS5003;58557;50.982;-3.222;2023-10-08T01:30:34;29;27;
70915;PMS5003;58557;50.982;-3.222;2023-10-08T01:32:59;26;24;
70915;PMS5003;58557;50.982;-3.222;2023-10-08T01:35:25;23;20;
70915;PMS5003;58557;50.982;-3.222;2023-10-08T01:37:50;25;24;
70915;PMS5003;58557;50.982;-3.222;2023-10-08T01:40:15;31;25;
70915;PMS5003;58557;50.982;-3.222;2023-10-08T01:42:40;28;28;
70915;PMS5003;58557;50.982;-3.222;2023-10-08T01:45:06;21;21;
70915;PMS5003;58557;50.982;-3.222;2023-10-08T01:47:31;21;21;
70915;PMS5003;58557;50.982;-3.222;2023-10-08T01:49:56;23;22;
70915;PMS5003;58557;50.982;-3.222;2023-10-08T01:52:22;26;26;
70915;PMS5003;58557;50.982;-3.222;2023-10-08T01:54:47;22;19;
70915;PMS5003;58557;50.982;-3.222;2023-10-08T01:57:12;22;22;
70915;PMS5003;58557;50.982;-3.222;2023-10-08T01:59:37;23;23;
70915;PMS5003;58557;50.982;-3.222;2023-10-08T02:02:03;22;20;
70915;PMS5003;58557;50.982;-3.222;2023-10-08T02:04:28;19;17;
70915;PMS5003;58557;50.982;-3.222;2023-10-08T02:06:54;33;28;
70915;PMS5003;58557;50.982;-3.222;2023-10-08T02:09:19;30;26;
70915;PMS5003;58557;50.982;-3.222;2023-10-08T02:11:45;29;24;
70915;PMS5003;58557;50.982;-3.222;2023-10-08T02:14:10;27;24;
70915;PMS5003;58557;50.982;-3.222;2023-10-08T02:16:35;27;26;
70915;PMS5003;58557;50.982;-3.222;2023-10-08T02:19:00;30;28;
70915;PMS5003;58557;50.982;-3.222;2023-10-08T02:21:26;27;26;
70915;PMS5003;58557;50.982;-3.222;2023-10-08T02:23:52;27;23;
70915;PMS5003;58557;50.982;-3.222;2023-10-08T02:26:17;36;30;
70915;PMS5003;58557;50.982;-3.222;2023-10-08T02:28:42;30;27;
70915;PMS5003;58557;50.982;-3.222;2023-10-08T02:31:08;30;26;
70915;PMS5003;58557;50.982;-3.222;2023-10-08T02:33:34;32;28;
70915;PMS5003;58557;50.982;-3.222;2023-10-08T02:35:59;25;23;
70915;PMS5003;58557;50.982;-3.222;2023-10-08T02:38:25;18;17;
70915;PMS5003;58557;50.982;-3.222;2023-10-08T02:40:50;24;21;
70915;PMS5003;58557;50.982;-3.222;2023-10-08T02:43:16;20;20;
70915;PMS5003;58557;50.982;-3.222;2023-10-08T02:45:42;22;21;
70915;PMS5003;58557;50.982;-3.222;2023-10-08T02:48:07;25;23;
70915;PMS5003;58557;50.982;-3.222;2023-10-08T02:50:32;28;26;
70915;PMS5003;58557;50.982;-3.222;2023-10-08T02:52:57;28;25;
70915;PMS5003;58557;50.982;-3.222;2023-10-08T02:55:23;21;20;
70915;PMS5003;58557;50.982;-3.222;2023-10-08T02:57:48;20;19;
70915;PMS5003;58557;50.982;-3.222;2023-10-08T03:00:14;21;16;
70915;PMS5003;58557;50.982;-3.222;2023-10-08T03:02:39;23;20;
70915;PMS5003;58557;50.982;-3.222;2023-10-08T03:05:05;19;18;
70915;PMS5003;58557;50.982;-3.222;2023-10-08T03:07:30;16;16;
70915;PMS5003;58557;50.982;-3.222;2023-10-08T03:09:56;22;20;
70915;PMS5003;58557;50.982;-3.222;2023-10-08T03:12:21;24;17;
70915;PMS5003;58557;50.982;-3.222;2023-10-08T03:14:47;23;23;
70915;PMS5003;58557;50.982;-3.222;2023-10-08T03:17:13;19;16;
70915;PMS5003;58557;50.982;-3.222;2023-10-08T03:19:38;23;19;
70915;PMS5003;58557;50.982;-3.222;2023-10-08T03:22:03;14;14;
70915;PMS5003;58557;50.982;-3.222;2023-10-08T03:24:28;17;17;
70915;PMS5003;58557;50.982;-3.222;2023-10-08T03:26:53;24;22;
70915;PMS5003;58557;50.982;-3.222;2023-10-08T03:29:19;17;16;
70915;PMS5003;58557;50.982;-3.222;2023-10-08T03:31:44;17;14;
70915;PMS5003;58557;50.982;-3.222;2023-10-08T03:34:10;21;20;
70915;PMS5003;58557;50.982;-3.222;2023-10-08T03:36:36;20;20;
70915;PMS5003;58557;50.982;-3.222;2023-10-08T03:39:01;17;17;
70915;PMS5003;58557;50.982;-3.222;2023-10-08T03:41:27;18;16;
70915;PMS5003;58557;50.982;-3.222;2023-10-08T03:43:53;22;19;
70915;PMS5003;58557;50.982;-3.222;2023-10-08T03:46:19;21;19;
70915;PMS5003;58557;50.982;-3.222;2023-10-08T03:48:44;18;17;
70915;PMS5003;58557;50.982;-3.222;2023-10-08T03:51:09;18;18;
70915;PMS5003;58557;50.982;-3.222;2023-10-08T03:53:35;22;20;
70915;PMS5003;58557;50.982;-3.222;2023-10-08T03:56:00;22;22;
70915;PMS5003;58557;50.982;-3.222;2023-10-08T03:58:26;21;19;
70915;PMS5003;58557;50.982;-3.222;2023-10-08T04:00:51;15;15;
70915;PMS5003;58557;50.982;-3.222;2023-10-08T04:03:17;24;18;
70915;PMS5003;58557;50.982;-3.222;2023-10-08T04:05:42;23;22;
70915;PMS5003;58557;50.982;-3.222;2023-10-08T04:08:07;21;19;
70915;PMS5003;58557;50.982;-3.222;2023-10-08T04:10:34;20;17;
70915;PMS5003;58557;50.982;-3.222;2023-10-08T04:12:58;24;18;
70915;PMS5003;58557;50.982;-3.222;2023-10-08T04:15:23;23;19;
70915;PMS5003;58557;50.982;-3.222;2023-10-08T04:17:49;22;20;
70915;PMS5003;58557;50.982;-3.222;2023-10-08T04:20:14;21;18;
70915;PMS5003;58557;50.982;-3.222;2023-10-08T04:22:39;18;16;
70915;PMS5003;58557;50.982;-3.222;2023-10-08T04:25:05;19;18;
70915;PMS5003;58557;50.982;-3.222;2023-10-08T04:27:30;17;16;
70915;PMS5003;58557;50.982;-3.222;2023-10-08T04:29:55;18;17;
70915;PMS5003;58557;50.982;-3.222;2023-10-08T04:32:21;25;22;
70915;PMS5003;58557;50.982;-3.222;2023-10-08T04:34:46;27;22;
70915;PMS5003;58557;50.982;-3.222;2023-10-08T04:37:11;18;17;
70915;PMS5003;58557;50.982;-3.222;2023-10-08T04:39:36;18;18;
70915;PMS5003;58557;50.982;-3.222;2023-10-08T04:42:02;24;22;
70915;PMS5003;58557;50.982;-3.222;2023-10-08T04:44:27;21;21;
70915;PMS5003;58557;50.982;-3.222;2023-10-08T04:46:52;21;17;
70915;PMS5003;58557;50.982;-3.222;2023-10-08T04:49:18;22;20;
70915;PMS5003;58557;50.982;-3.222;2023-10-08T04:51:43;29;26;
70915;PMS5003;58557;50.982;-3.222;2023-10-08T04:54:10;22;20;
70915;PMS5003;58557;50.982;-3.222;2023-10-08T04:56:34;20;17;
70915;PMS5003;58557;50.982;-3.222;2023-10-08T04:59:00;29;25;
70915;PMS5003;58557;50.982;-3.222;2023-10-08T05:01:27;23;21;
70915;PMS5003;58557;50.982;-3.222;2023-10-08T05:03:51;23;21;
70915;PMS5003;58557;50.982;-3.222;2023-10-08T05:06:17;20;18;
70915;PMS5003;58557;50.982;-3.222;2023-10-08T05:08:42;31;27;
70915;PMS5003;58557;50.982;-3.222;2023-10-08T05:11:07;24;23;
70915;PMS5003;58557;50.982;-3.222;2023-10-08T05:13:33;16;16;
70915;PMS5003;58557;50.982;-3.222;2023-10-08T05:15:58;21;20;
70915;PMS5003;58557;50.982;-3.222;2023-10-08T05:18:24;25;23;
70915;PMS5003;58557;50.982;-3.222;2023-10-08T05:20:49;23;21;
70915;PMS5003;58557;50.982;-3.222;2023-10-08T05:23:15;25;23;
70915;PMS5003;58557;50.982;-3.222;2023-10-08T05:25:41;23;20;
70915;PMS5003;58557;50.982;-3.222;2023-10-08T05:28:05;25;21;
70915;PMS5003;58557;50.982;-3.222;2023-10-08T05:30:30;21;19;
70915;PMS5003;58557;50.982;-3.222;2023-10-08T05:32:56;26;25;
70915;PMS5003;58557;50.982;-3.222;2023-10-08T05:35:22;17;16;
70915;PMS5003;58557;50.982;-3.222;2023-10-08T05:37:47;21;19;
70915;PMS5003;58557;50.982;-3.222;2023-10-08T05:40:12;22;20;
70915;PMS5003;58557;50.982;-3.222;2023-10-08T05:42:38;22;22;
70915;PMS5003;58557;50.982;-3.222;2023-10-08T05:45:04;18;16;
70915;PMS5003;58557;50.982;-3.222;2023-10-08T05:47:29;18;17;
70915;PMS5003;58557;50.982;-3.222;2023-10-08T05:49:54;22;21;
70915;PMS5003;58557;50.982;-3.222;2023-10-08T05:52:20;21;21;
70915;PMS5003;58557;50.982;-3.222;2023-10-08T05:54:45;16;16;
70915;PMS5003;58557;50.982;-3.222;2023-10-08T05:57:11;20;18;
70915;PMS5003;58557;50.982;-3.222;2023-10-08T05:59:37;19;19;
70915;PMS5003;58557;50.982;-3.222;2023-10-08T06:02:01;21;19;
70915;PMS5003;58557;50.982;-3.222;2023-10-08T06:04:27;23;20;
70915;PMS5003;58557;50.982;-3.222;2023-10-08T06:06:53;17;17;
70915;PMS5003;58557;50.982;-3.222;2023-10-08T06:09:18;16;16;
70915;PMS5003;58557;50.982;-3.222;2023-10-08T06:11:43;23;19;
70915;PMS5003;58557;50.982;-3.222;2023-10-08T06:14:09;22;19;
70915;PMS5003;58557;50.982;-3.222;2023-10-08T06:16:35;20;18;
70915;PMS5003;58557;50.982;-3.222;2023-10-08T06:19:00;25;21;
70915;PMS5003;58557;50.982;-3.222;2023-10-08T06:21:26;16;16;
70915;PMS5003;58557;50.982;-3.222;2023-10-08T06:23:52;20;18;
70915;PMS5003;58557;50.982;-3.222;2023-10-08T06:26:17;19;19;
70915;PMS5003;58557;50.982;-3.222;2023-10-08T06:28:44;19;16;
70915;PMS5003;58557;50.982;-3.222;2023-10-08T06:31:09;25;21;
70915;PMS5003;58557;50.982;-3.222;2023-10-08T06:33:34;18;16;
70915;PMS5003;58557;50.982;-3.222;2023-10-08T06:36:00;19;18;
70915;PMS5003;58557;50.982;-3.222;2023-10-08T06:38:25;24;22;
70915;PMS5003;58557;50.982;-3.222;2023-10-08T06:40:50;18;17;
70915;PMS5003;58557;50.982;-3.222;2023-10-08T06:43:16;24;20;
70915;PMS5003;58557;50.982;-3.222;2023-10-08T06:45:42;19;17;
70915;PMS5003;58557;50.982;-3.222;2023-10-08T06:48:07;18;15;
70915;PMS5003;58557;50.982;-3.222;2023-10-08T06:50:33;22;18;
70915;PMS5003;58557;50.982;-3.222;2023-10-08T06:52:58;24;22;
70915;PMS5003;58557;50.982;-3.222;2023-10-08T06:55:24;17;15;
70915;PMS5003;58557;50.982;-3.222;2023-10-08T06:57:49;23;20;
70915;PMS5003;58557;50.982;-3.222;2023-10-08T07:00:14;21;19;
70915;PMS5003;58557;50.982;-3.222;2023-10-08T07:02:40;23;20;
70915;PMS5003;58557;50.982;-3.222;2023-10-08T07:05:05;21;19;
70915;PMS5003;58557;50.982;-3.222;2023-10-08T07:07:31;20;19;
70915;PMS5003;58557;50.982;-3.222;2023-10-08T07:09:56;20;20;
70915;PMS5003;58557;50.982;-3.222;2023-10-08T07:12:22;21;18;
70915;PMS5003;58557;50.982;-3.222;2023-10-08T07:14:47;24;23;
70915;PMS5003;58557;50.982;-3.222;2023-10-08T07:17:12;21;19;
70915;PMS5003;58557;50.982;-3.222;2023-10-08T07:19:38;22;21;
70915;PMS5003;58557;50.982;-3.222;2023-10-08T07:22:03;18;18;
70915;PMS5003;58557;50.982;-3.222;2023-10-08T07:24:29;22;20;
70915;PMS5003;58557;50.982;-3.222;2023-10-08T07:26:54;19;18;
70915;PMS5003;58557;50.982;-3.222;2023-10-08T07:29:19;19;17;
70915;PMS5003;58557;50.982;-3.222;2023-10-08T07:31:45;21;18;
70915;PMS5003;58557;50.982;-3.222;2023-10-08T07:34:10;28;24;
70915;PMS5003;58557;50.982;-3.222;2023-10-08T07:36:35;16;15;
70915;PMS5003;58557;50.982;-3.222;2023-10-08T07:39:00;21;19;
70915;PMS5003;58557;50.982;-3.222;2023-10-08T07:41:25;21;18;
70915;PMS5003;58557;50.982;-3.222;2023-10-08T07:43:51;16;14;
70915;PMS5003;58557;50.982;-3.222;2023-10-08T07:46:16;13;13;
70915;PMS5003;58557;50.982;-3.222;2023-10-08T07:48:42;19;16;
70915;PMS5003;58557;50.982;-3.222;2023-10-08T07:51:07;14;12;
70915;PMS5003;58557;50.982;-3.222;2023-10-08T07:53:32;14;14;
70915;PMS5003;58557;50.982;-3.222;2023-10-08T07:55:58;15;11;
70915;PMS5003;58557;50.982;-3.222;2023-10-08T07:58:24;19;19;
70915;PMS5003;58557;50.982;-3.222;2023-10-08T08:00:49;19;17;
70915;PMS5003;58557;50.982;-3.222;2023-10-08T08:03:15;18;17;
70915;PMS5003;58557;50.982;-3.222;2023-10-08T08:05:40;17;16;
70915;PMS5003;58557;50.982;-3.222;2023-10-08T08:08:06;16;16;
70915;PMS5003;58557;50.982;-3.222;2023-10-08T08:10:31;15;13;
70915;PMS5003;58557;50.982;-3.222;2023-10-08T08:12:56;20;18;
70915;PMS5003;58557;50.982;-3.222;2023-10-08T08:15:22;16;16;
70915;PMS5003;58557;50.982;-3.222;2023-10-08T08:17:47;15;11;
70915;PMS5003;58557;50.982;-3.222;2023-10-08T08:20:12;9;9;
70915;PMS5003;58557;50.982;-3.222;2023-10-08T08:22:38;12;10;
70915;PMS5003;58557;50.982;-3.222;2023-10-08T08:25:04;9;9;
70915;PMS5003;58557;50.982;-3.222;2023-10-08T08:27:29;10;10;
70915;PMS5003;58557;50.982;-3.222;2023-10-08T08:29:56;12;12;
70915;PMS5003;58557;50.982;-3.222;2023-10-08T08:32:20;10;10;
70915;PMS5003;58557;50.982;-3.222;2023-10-08T08:34:45;12;11;
70915;PMS5003;58557;50.982;-3.222;2023-10-08T08:37:11;10;10;
70915;PMS5003;58557;50.982;-3.222;2023-10-08T08:39:37;13;13;
70915;PMS5003;58557;50.982;-3.222;2023-10-08T08:42:03;9;9;
70915;PMS5003;58557;50.982;-3.222;2023-10-08T08:44:28;13;11;
70915;PMS5003;58557;50.982;-3.222;2023-10-08T08:46:52;11;10;
70915;PMS5003;58557;50.982;-3.222;2023-10-08T08:49:18;12;11;
70915;PMS5003;58557;50.982;-3.222;2023-10-08T08:51:44;11;11;
70915;PMS5003;58557;50.982;-3.222;2023-10-08T08:54:09;14;13;
70915;PMS5003;58557;50.982;-3.222;2023-10-08T08:56:36;10;10;
70915;PMS5003;58557;50.982;-3.222;2023-10-08T08:58:55;4;4;
70915;PMS5003;58557;50.982;-3.222;2023-10-08T09:01:20;10;9;
70915;PMS5003;58557;50.982;-3.222;2023-10-08T09:03:45;13;12;
70915;PMS5003;58557;50.982;-3.222;2023-10-08T09:06:11;18;16;
70915;PMS5003;58557;50.982;-3.222;2023-10-08T09:08:37;11;10;
70915;PMS5003;58557;50.982;-3.222;2023-10-08T09:11:02;9;9;
70915;PMS5003;58557;50.982;-3.222;2023-10-08T09:13:28;10;8;
70915;PMS5003;58557;50.982;-3.222;2023-10-08T09:15:58;12;9;
70915;PMS5003;58557;50.982;-3.222;2023-10-08T09:18:20;11;10;
70915;PMS5003;58557;50.982;-3.222;2023-10-08T09:20:44;11;11;
70915;PMS5003;58557;50.982;-3.222;2023-10-08T09:23:10;10;10;
70915;PMS5003;58557;50.982;-3.222;2023-10-08T09:25:35;9;8;
70915;PMS5003;58557;50.982;-3.222;2023-10-08T09:28:01;11;8;
70915;PMS5003;58557;50.982;-3.222;2023-10-08T09:30:27;10;10;
70915;PMS5003;58557;50.982;-3.222;2023-10-08T09:32:51;12;10;
70915;PMS5003;58557;50.982;-3.222;2023-10-08T09:35:17;9;9;
70915;PMS5003;58557;50.982;-3.222;2023-10-08T09:37:43;11;10;
70915;PMS5003;58557;50.982;-3.222;2023-10-08T09:40:08;11;10;
70915;PMS5003;58557;50.982;-3.222;2023-10-08T09:42:33;11;10;
70915;PMS5003;58557;50.982;-3.222;2023-10-08T09:44:59;10;10;
70915;PMS5003;58557;50.982;-3.222;2023-10-08T09:47:24;11;9;
70915;PMS5003;58557;50.982;-3.222;2023-10-08T09:49:56;12;9;
70915;PMS5003;58557;50.982;-3.222;2023-10-08T09:52:16;10;10;
70915;PMS5003;58557;50.982;-3.222;2023-10-08T09:54:43;18;14;
70915;PMS5003;58557;50.982;-3.222;2023-10-08T09:57:06;9;8;
70915;PMS5003;58557;50.982;-3.222;2023-10-08T09:59:32;14;11;
70915;PMS5003;58557;50.982;-3.222;2023-10-08T10:01:57;8;7;
70915;PMS5003;58557;50.982;-3.222;2023-10-08T10:04:23;11;11;
70915;PMS5003;58557;50.982;-3.222;2023-10-08T10:06:48;6;6;
70915;PMS5003;58557;50.982;-3.222;2023-10-08T10:11:39;12;11;
70915;PMS5003;58557;50.982;-3.222;2023-10-08T10:14:05;10;9;
70915;PMS5003;58557;50.982;-3.222;2023-10-08T10:16:30;14;11;
70915;PMS5003;58557;50.982;-3.222;2023-10-08T10:18:56;11;8;
70915;PMS5003;58557;50.982;-3.222;2023-10-08T10:21:25;12;9;
70915;PMS5003;58557;50.982;-3.222;2023-10-08T10:23:47;11;11;
70915;PMS5003;58557;50.982;-3.222;2023-10-08T10:26:23;10;9;
70915;PMS5003;58557;50.982;-3.222;2023-10-08T10:28:43;13;11;
70915;PMS5003;58557;50.982;-3.222;2023-10-08T10:31:03;11;10;
70915;PMS5003;58557;50.982;-3.222;2023-10-08T10:33:30;9;9;
70915;PMS5003;58557;50.982;-3.222;2023-10-08T10:35:54;10;10;
70915;PMS5003;58557;50.982;-3.222;2023-10-08T10:38:19;13;12;
70915;PMS5003;58557;50.982;-3.222;2023-10-08T10:40:48;12;10;
70915;PMS5003;58557;50.982;-3.222;2023-10-08T10:43:09;15;14;
70915;PMS5003;58557;50.982;-3.222;2023-10-08T10:45:35;15;15;
70915;PMS5003;58557;50.982;-3.222;2023-10-08T10:48:00;13;13;
70915;PMS5003;58557;50.982;-3.222;2023-10-08T10:50:25;14;14;
70915;PMS5003;58557;50.982;-3.222;2023-10-08T10:52:50;15;15;
70915;PMS5003;58557;50.982;-3.222;2023-10-08T10:55:16;21;18;
70915;PMS5003;58557;50.982;-3.222;2023-10-08T10:57:42;16;12;
70915;PMS5003;58557;50.982;-3.222;2023-10-08T11:00:08;16;14;
70915;PMS5003;58557;50.982;-3.222;2023-10-08T11:02:32;12;12;
70915;PMS5003;58557;50.982;-3.222;2023-10-08T11:04:58;14;13;
70915;PMS5003;58557;50.982;-3.222;2023-10-08T11:07:24;13;11;
70915;PMS5003;58557;50.982;-3.222;2023-10-08T11:09:49;14;14;
70915;PMS5003;58557;50.982;-3.222;2023-10-08T11:12:19;20;18;
70915;PMS5003;58557;50.982;-3.222;2023-10-08T11:14:40;25;21;
70915;PMS5003;58557;50.982;-3.222;2023-10-08T11:19:31;21;19;
70915;PMS5003;58557;50.982;-3.222;2023-10-08T11:21:56;21;19;
70915;PMS5003;58557;50.982;-3.222;2023-10-08T11:24:27;17;17;
70915;PMS5003;58557;50.982;-3.222;2023-10-08T11:26:47;19;17;
70915;PMS5003;58557;50.982;-3.222;2023-10-08T11:29:12;16;15;
70915;PMS5003;58557;50.982;-3.222;2023-10-08T11:31:37;19;16;
70915;PMS5003;58557;50.982;-3.222;2023-10-08T11:34:03;22;19;
70915;PMS5003;58557;50.982;-3.222;2023-10-08T11:36:29;25;22;
70915;PMS5003;58557;50.982;-3.222;2023-10-08T11:38:54;18;18;
70915;PMS5003;58557;50.982;-3.222;2023-10-08T11:41:20;21;21;
70915;PMS5003;58557;50.982;-3.222;2023-10-08T11:43:45;20;17;
70915;PMS5003;58557;50.982;-3.222;2023-10-08T11:46:11;18;18;
70915;PMS5003;58557;50.982;-3.222;2023-10-08T11:48:36;18;17;
70915;PMS5003;58557;50.982;-3.222;2023-10-08T11:51:02;24;21;
70915;PMS5003;58557;50.982;-3.222;2023-10-08T11:53:27;18;16;
70915;PMS5003;58557;50.982;-3.222;2023-10-08T11:55:52;19;16;
70915;PMS5003;58557;50.982;-3.222;2023-10-08T11:58:18;17;17;
70915;PMS5003;58557;50.982;-3.222;2023-10-08T12:00:44;18;18;
70915;PMS5003;58557;50.982;-3.222;2023-10-08T12:03:10;15;13;
70915;PMS5003;58557;50.982;-3.222;2023-10-08T12:05:34;15;13;
70915;PMS5003;58557;50.982;-3.222;2023-10-08T12:07:59;18;18;
70915;PMS5003;58557;50.982;-3.222;2023-10-08T12:10:29;22;19;
70915;PMS5003;58557;50.982;-3.222;2023-10-08T12:12:50;24;19;
70915;PMS5003;58557;50.982;-3.222;2023-10-08T12:15:15;25;22;
70915;PMS5003;58557;50.982;-3.222;2023-10-08T12:17:47;27;23;
70915;PMS5003;58557;50.982;-3.222;2023-10-08T12:20:07;21;17;
70915;PMS5003;58557;50.982;-3.222;2023-10-08T12:22:32;18;18;
70915;PMS5003;58557;50.982;-3.222;2023-10-08T12:24:58;21;18;
70915;PMS5003;58557;50.982;-3.222;2023-10-08T12:27:23;22;20;
70915;PMS5003;58557;50.982;-3.222;2023-10-08T12:29:49;16;16;
70915;PMS5003;58557;50.982;-3.222;2023-10-08T12:32:14;19;17;
70915;PMS5003;58557;50.982;-3.222;2023-10-08T12:34:39;18;15;
70915;PMS5003;58557;50.982;-3.222;2023-10-08T12:37:05;16;14;
70915;PMS5003;58557;50.982;-3.222;2023-10-08T12:39:30;15;14;
70915;PMS5003;58557;50.982;-3.222;2023-10-08T12:42:00;10;10;
70915;PMS5003;58557;50.982;-3.222;2023-10-08T12:44:21;12;12;
70915;PMS5003;58557;50.982;-3.222;2023-10-08T12:46:46;12;11;
70915;PMS5003;58557;50.982;-3.222;2023-10-08T12:49:12;10;9;
70915;PMS5003;58557;50.982;-3.222;2023-10-08T12:51:37;10;10;
70915;PMS5003;58557;50.982;-3.222;2023-10-08T12:54:03;13;11;
70915;PMS5003;58557;50.982;-3.222;2023-10-08T12:56:34;10;9;
70915;PMS5003;58557;50.982;-3.222;2023-10-08T12:58:53;14;12;
70915;PMS5003;58557;50.982;-3.222;2023-10-08T13:01:19;14;11;
70915;PMS5003;58557;50.982;-3.222;2023-10-08T13:03:44;10;9;
70915;PMS5003;58557;50.982;-3.222;2023-10-08T13:06:10;11;8;
70915;PMS5003;58557;50.982;-3.222;2023-10-08T13:08:40;13;10;
70915;PMS5003;58557;50.982;-3.222;2023-10-08T13:11:00;12;12;
70915;PMS5003;58557;50.982;-3.222;2023-10-08T13:13:26;9;9;
70915;PMS5003;58557;50.982;-3.222;2023-10-08T13:15:51;12;9;
70915;PMS5003;58557;50.982;-3.222;2023-10-08T13:18:16;13;9;
70915;PMS5003;58557;50.982;-3.222;2023-10-08T13:20:41;15;12;
70915;PMS5003;58557;50.982;-3.222;2023-10-08T13:23:07;11;10;
70915;PMS5003;58557;50.982;-3.222;2023-10-08T13:25:36;10;7;
70915;PMS5003;58557;50.982;-3.222;2023-10-08T13:27:58;8;8;
70915;PMS5003;58557;50.982;-3.222;2023-10-08T13:30:23;14;12;
70915;PMS5003;58557;50.982;-3.222;2023-10-08T13:32:49;11;9;
70915;PMS5003;58557;50.982;-3.222;2023-10-08T13:35:15;10;10;
70915;PMS5003;58557;50.982;-3.222;2023-10-08T13:37:40;9;9;
70915;PMS5003;58557;50.982;-3.222;2023-10-08T13:40:06;11;10;
70915;PMS5003;58557;50.982;-3.222;2023-10-08T13:42:31;14;10;
70915;PMS5003;58557;50.982;-3.222;2023-10-08T13:44:56;13;9;
70915;PMS5003;58557;50.982;-3.222;2023-10-08T13:47:22;9;9;
70915;PMS5003;58557;50.982;-3.222;2023-10-08T13:49:47;10;10;
70915;PMS5003;58557;50.982;-3.222;2023-10-08T13:52:13;9;5;
70915;PMS5003;58557;50.982;-3.222;2023-10-08T13:54:38;12;11;
70915;PMS5003;58557;50.982;-3.222;2023-10-08T13:57:03;8;7;
70915;PMS5003;58557;50.982;-3.222;2023-10-08T13:59:30;8;8;
70915;PMS5003;58557;50.982;-3.222;2023-10-08T14:01:54;9;8;
70915;PMS5003;58557;50.982;-3.222;2023-10-08T14:04:23;10;8;
70915;PMS5003;58557;50.982;-3.222;2023-10-08T14:06:45;6;5;
70915;PMS5003;58557;50.982;-3.222;2023-10-08T14:09:10;7;7;
70915;PMS5003;58557;50.982;-3.222;2023-10-08T14:11:36;7;7;
70915;PMS5003;58557;50.982;-3.222;2023-10-08T14:14:06;9;7;
70915;PMS5003;58557;50.982;-3.222;2023-10-08T14:16:27;9;9;
70915;PMS5003;58557;50.982;-3.222;2023-10-08T14:18:52;8;6;
70915;PMS5003;58557;50.982;-3.222;2023-10-08T14:21:17;13;10;
70915;PMS5003;58557;50.982;-3.222;2023-10-08T14:23:43;5;5;
70915;PMS5003;58557;50.982;-3.222;2023-10-08T14:26:08;7;7;
70915;PMS5003;58557;50.982;-3.222;2023-10-08T14:28:33;12;8;
70915;PMS5003;58557;50.982;-3.222;2023-10-08T14:30:58;9;7;
70915;PMS5003;58557;50.982;-3.222;2023-10-08T14:33:24;9;8;
70915;PMS5003;58557;50.982;-3.222;2023-10-08T14:35:50;10;9;
70915;PMS5003;58557;50.982;-3.222;2023-10-08T14:38:15;10;9;
70915;PMS5003;58557;50.982;-3.222;2023-10-08T14:40:40;8;6;
70915;PMS5003;58557;50.982;-3.222;2023-10-08T14:43:06;8;5;
70915;PMS5003;58557;50.982;-3.222;2023-10-08T14:45:34;5;5;
70915;PMS5003;58557;50.982;-3.222;2023-10-08T14:48:02;7;7;
70915;PMS5003;58557;50.982;-3.222;2023-10-08T14:50:22;9;9;
70915;PMS5003;58557;50.982;-3.222;2023-10-08T14:52:48;6;6;
70915;PMS5003;58557;50.982;-3.222;2023-10-08T14:55:13;6;5;
70915;PMS5003;58557;50.982;-3.222;2023-10-08T14:57:38;9;9;
70915;PMS5003;58557;50.982;-3.222;2023-10-08T15:00:04;7;7;
70915;PMS5003;58557;50.982;-3.222;2023-10-08T15:02:29;5;5;
70915;PMS5003;58557;50.982;-3.222;2023-10-08T15:04:55;8;6;
70915;PMS5003;58557;50.982;-3.222;2023-10-08T15:07:20;6;6;
70915;PMS5003;58557;50.982;-3.222;2023-10-08T15:09:46;6;6;
70915;PMS5003;58557;50.982;-3.222;2023-10-08T15:12:11;8;8;
70915;PMS5003;58557;50.982;-3.222;2023-10-08T15:14:42;4;4;
70915;PMS5003;58557;50.982;-3.222;2023-10-08T15:17:02;10;5;
70915;PMS5003;58557;50.982;-3.222;2023-10-08T15:19:28;5;5;
70915;PMS5003;58557;50.982;-3.222;2023-10-08T15:21:53;10;10;
70915;PMS5003;58557;50.982;-3.222;2023-10-08T15:24:19;6;6;
70915;PMS5003;58557;50.982;-3.222;2023-10-08T15:26:44;7;7;
70915;PMS5003;58557;50.982;-3.222;2023-10-08T15:29:10;4;4;
70915;PMS5003;58557;50.982;-3.222;2023-10-08T15:31:35;9;8;
70915;PMS5003;58557;50.982;-3.222;2023-10-08T15:34:01;10;8;
70915;PMS5003;58557;50.982;-3.222;2023-10-08T15:36:27;9;8;
70915;PMS5003;58557;50.982;-3.222;2023-10-08T15:38:52;9;9;
70915;PMS5003;58557;50.982;-3.222;2023-10-08T15:41:17;9;8;
70915;PMS5003;58557;50.982;-3.222;2023-10-08T15:43:43;8;6;
70915;PMS5003;58557;50.982;-3.222;2023-10-08T15:46:10;8;8;
70915;PMS5003;58557;50.982;-3.222;2023-10-08T15:48:33;10;9;
70915;PMS5003;58557;50.982;-3.222;2023-10-08T15:50:59;7;6;
70915;PMS5003;58557;50.982;-3.222;2023-10-08T15:53:24;8;8;
70915;PMS5003;58557;50.982;-3.222;2023-10-08T15:55:50;6;6;
70915;PMS5003;58557;50.982;-3.222;2023-10-08T15:58:15;5;5;